Time;durP1;ratioP1;P1;durP2;ratioP2;P2;SDS_P1;SDS_P2;PMS_P1;PMS_P2;Temp;Humidity;BMP_temperature;BMP_pressure;BME280_temperature;BME280_humidity;BME280_pressure;Samples;Min_cycle;Max_cycle;Signal;HPM_P1;HPM_P2
2021/01/08 00:01:29;;;;;;;4.47;3.17;;;;;;;;;;4974400;28;20404;-74
2021/01/08 00:03:55;;;;;;;5.03;3.10;;;;;;;;;;4986214;28;20927;-74
2021/01/08 00:06:21;;;;;;;4.13;3.00;;;;;;;;;;4980407;28;20423;-74
2021/01/08 00:08:47;;;;;;;4.60;3.00;;;;;;;;;;4979107;28;20400;-74
2021/01/08 00:11:19;;;;;;;3.83;2.92;;;;;;;;;;4983753;28;20410;-74
2021/01/08 00:13:45;;;;;;;5.60;3.28;;;;;;;;;;4984561;28;20400;-74
2021/01/08 00:16:13;;;;;;;4.28;2.80;;;;;;;;;;4987746;28;20406;-74
2021/01/08 00:18:39;;;;;;;5.03;2.92;;;;;;;;;;4991885;28;20914;-74
2021/01/08 00:21:05;;;;;;;3.47;2.72;;;;;;;;;;4992176;28;20406;-74
2021/01/08 00:23:31;;;;;;;5.07;2.93;;;;;;;;;;4978316;28;20403;-74
2021/01/08 00:25:57;;;;;;;;;;;;;;;;;;4994918;28;20320;-74
2021/01/08 00:28:23;;;;;;;;;;;;;;;;;;4993413;28;20349;-74
2021/01/08 00:30:49;;;;;;;;;;;;;;;;;;4994879;28;20000;-74
2021/01/08 00:33:15;;;;;;;;;;;;;;;;;;4979354;28;19941;-74
2021/01/08 00:35:41;;;;;;;;;;;;;;;;;;4981757;28;20352;-74
2021/01/08 00:38:07;;;;;;;;;;;;;;;;;;4981208;28;20338;-74
2021/01/08 00:40:32;;;;;;;;;;;;;;;;;;4989012;28;19906;-74
2021/01/08 00:42:58;;;;;;;;;;;;;;;;;;4979741;28;19906;-74
2021/01/08 00:45:24;;;;;;;;;;;;;;;;;;4987632;28;20281;-74
2021/01/08 00:47:51;;;;;;;4.65;2.50;;;;;;;;;;4990618;28;19906;-74
2021/01/08 00:50:18;;;;;;;3.63;2.38;;;;;;;;;;4992073;28;20402;-74
2021/01/08 00:52:44;;;;;;;;;;;;;;;;;;4988030;28;20038;-74
2021/01/08 00:55:10;;;;;;;;;;;;;;;;;;4987238;28;19956;-74
2021/01/08 00:57:35;;;;;;;;;;;-0.20;99.90;;;;;;4979382;28;20317;-74
2021/01/08 01:00:01;;;;;;;;;;;-0.30;99.90;;;;;;4994226;28;19922;-74
2021/01/08 01:02:27;;;;;;;;;;;-0.50;99.90;;;;;;4977831;28;19918;-74
2021/01/08 01:04:53;;;;;;;;;;;-0.30;99.90;;;;;;4990634;28;19953;-74
2021/01/08 01:07:19;;;;;;;;;;;-0.40;99.90;;;;;;4992121;28;19929;-74
2021/01/08 01:09:46;;;;;;;4.43;1.70;;;;;;;;;;4979865;28;19921;-74
2021/01/08 01:12:13;;;;;;;4.25;1.90;;;;;;;;;;4992682;28;20038;-74
2021/01/08 01:14:38;;;;;;;;;;;-0.20;99.90;;;;;;4991533;28;20038;-74
2021/01/08 01:17:05;;;;;;;;;;;;;;;;;;4982081;28;19918;-74
2021/01/08 01:19:31;;;;;;;;;;;;;;;;;;4994400;28;19906;-74
2021/01/08 01:21:58;;;;;;;3.67;1.98;;;;;;;;;;4986950;28;19929;-74
2021/01/08 01:24:24;;;;;;;3.33;2.47;;;;;;;;;;4981057;28;20491;-74
2021/01/08 01:26:53;;;;;;;3.67;2.70;;;;;;;;;;4991683;28;20953;-74
2021/01/08 01:29:19;;;;;;;3.88;2.42;;;;;;;;;;4985617;28;20425;-74
2021/01/08 01:31:45;;;;;;;3.40;2.65;;;;;;;;;;4983222;28;20408;-74
2021/01/08 01:34:12;;;;;;;3.80;2.33;;;;;;;;;;4983938;28;20416;-74
2021/01/08 01:36:39;;;;;;;3.92;2.67;;;;;;;;;;4991037;28;20407;-74
2021/01/08 01:39:06;;;;;;;3.85;2.70;;;;;;;;;;4995284;28;20422;-74
2021/01/08 01:41:32;;;;;;;3.88;2.53;;;;;;;;;;4989930;28;20440;-74
2021/01/08 01:43:58;;;;;;;3.50;2.70;;;;;;;;;;4987518;28;20429;-74
2021/01/08 01:46:24;;;;;;;3.70;2.60;;;;;;;;;;4988490;28;20401;-74
2021/01/08 01:48:51;;;;;;;3.83;2.40;;;;;;;;;;4990441;28;20901;-74
2021/01/08 01:51:17;;;;;;;3.90;2.70;;;;;;;;;;4988759;28;20415;-75
2021/01/08 01:53:44;;;;;;;3.10;2.23;;;;;;;;;;4988630;28;20403;-74
2021/01/08 01:56:11;;;;;;;3.45;2.22;;;;;;;;;;4990846;28;20426;-74
2021/01/08 01:58:37;;;;;;;3.83;2.40;;;;;;;;;;4989972;28;20920;-75
2021/01/08 02:01:03;;;;;;;3.53;2.40;;;;;;;;;;4988693;28;20429;-74
2021/01/08 02:03:32;;;;;;;11.05;2.90;;;;;;;;;;4989398;28;20897;-74
2021/01/08 02:06:02;;;;;;;3.30;2.17;;;;;;;;;;4984711;28;20408;-74
2021/01/08 02:08:29;;;;;;;3.30;2.28;;;;;;;;;;4993912;28;20406;-74
2021/01/08 02:10:58;;;;;;;3.58;2.17;;;;;;;;;;4994407;28;20415;-74
2021/01/08 02:13:27;;;;;;;4.93;2.63;;;;;;;;;;4980832;28;20485;-74
2021/01/08 02:15:54;;;;;;;3.67;2.20;;;;;;;;;;4994603;28;20425;-75
2021/01/08 02:18:21;;;;;;;3.85;2.20;;;;;;;;;;4995403;28;20769;-75
2021/01/08 02:20:48;;;;;;;3.63;2.40;;;;;;;;;;4996057;28;20409;-75
2021/01/08 02:23:19;;;;;;;3.30;2.00;;;;;;;;;;4995531;28;20889;-74
2021/01/08 02:25:47;;;;;;;3.63;2.40;;;;;;;;;;4995628;28;20458;-74
2021/01/08 02:28:20;;;;;;;3.58;2.63;;;;;;;;;;4994135;28;20936;-74
2021/01/08 02:30:47;;;;;;;3.92;2.70;;;;;;;;;;4995547;28;20493;-74
2021/01/08 02:33:14;;;;;;;3.30;2.30;;;;;;;;;;4994067;28;20410;-74
2021/01/08 02:35:40;;;;;;;3.10;2.17;;;;;;;;;;4995577;28;20498;-74
2021/01/08 02:38:07;;;;;;;3.53;2.28;;;;;;;;;;4994199;28;20835;-74
2021/01/08 02:40:34;;;;;;;3.67;2.10;;;;;;;;;;4993962;28;20402;-74
2021/01/08 02:43:02;;;;;;;2.75;2.10;;;;;;;;;;4984678;28;20404;-75
2021/01/08 02:45:28;;;;;;;3.45;2.42;;;;;;;;;;4981848;28;20404;-74
2021/01/08 02:47:54;;;;;;;4.32;2.30;;;;;;;;;;4978536;28;20469;-74
2021/01/08 02:50:21;;;;;;;4.18;1.95;;;;;;;;;;4986730;28;20441;-74
2021/01/08 02:52:49;;;;;;;3.60;2.10;;;;;;;;;;4975165;28;20408;-74
2021/01/08 02:55:17;;;;;;;2.53;1.75;;;;;;;;;;4989319;28;20482;-74
2021/01/08 02:57:44;;;;;;;2.78;1.58;;;;;;;;;;4988079;28;20942;-74
2021/01/08 03:00:12;;;;;;;4.30;2.53;;;;;;;;;;4987164;28;20746;-74
2021/01/08 03:02:39;;;;;;;4.07;2.27;;;;;;;;;;4983319;28;20412;-75
2021/01/08 03:05:05;;;;;;;3.80;2.30;;;;;;;;;;4985487;28;20863;-74
2021/01/08 03:07:32;;;;;;;2.78;1.90;;;;;;;;;;4990997;28;20398;-74
2021/01/08 03:09:59;;;;;;;3.92;2.35;;;;;;;;;;4987640;28;20406;-74
2021/01/08 03:12:28;;;;;;;3.10;2.22;;;;;;;;;;4975510;28;20411;-74
2021/01/08 03:14:54;;;;;;;2.60;1.63;;;;;;;;;;4988858;28;20914;-74
2021/01/08 03:17:21;;;;;;;3.60;2.08;;;;;;;;;;4975386;28;20401;-75
2021/01/08 03:19:47;;;;;;;2.22;1.67;;;;;;;;;;4988046;28;20404;-74
2021/01/08 03:22:13;;;;;;;3.08;1.52;;;;;;;;;;4992424;28;20754;-74
2021/01/08 03:24:40;;;;;;;4.50;1.77;;;;;;;;;;4992569;28;21008;-75
2021/01/08 03:27:06;;;;;;;1.98;1.23;;;;;;;;;;4994428;28;20402;-74
2021/01/08 03:29:32;;;;;;;3.15;1.60;;;;;;;;;;4993032;28;20462;-74
2021/01/08 03:31:58;;;;;;;2.45;1.50;;;;;;;;;;4992376;28;20405;-74
2021/01/08 03:34:25;;;;;;;2.60;1.20;;;;;;;;;;4994442;28;20878;-74
2021/01/08 03:36:51;;;;;;;3.10;1.50;;;;;;;;;;4991904;28;20412;-74
2021/01/08 03:39:17;;;;;;;2.00;1.23;;;;;;;;;;4993054;28;20429;-74
2021/01/08 03:41:43;;;;;;;1.47;1.00;;;;;;;;;;4990549;28;20965;-74
2021/01/08 03:44:13;;;;;;;3.10;1.10;;;;;;;;;;4994044;28;20042;-74
2021/01/08 03:46:39;;;;;;;2.55;1.30;;;;;;;;;;4988321;28;20402;-74
2021/01/08 03:49:06;;;;;;;2.30;1.20;;;;;;;;;;4990139;28;20476;-74
2021/01/08 03:51:33;;;;;;;2.35;1.40;;;;;;;;;;4983235;28;20046;-74
2021/01/08 03:53:59;;;;;;;1.52;1.10;;;;;;;;;;4989073;28;20567;-74
2021/01/08 03:56:25;;;;;;;1.75;1.15;;;;;;;;;;4981064;28;20414;-74
2021/01/08 03:58:51;;;;;;;1.23;0.85;;;;;;;;;;4982469;28;20076;-74
2021/01/08 04:01:17;;;;;;;1.40;1.00;;;;;;;;;;4981997;28;20054;-75
2021/01/08 04:03:43;;;;;;;1.23;0.90;;;;;;;;;;4994618;28;20054;-74
2021/01/08 04:06:10;;;;;;;2.03;0.80;;;;;;;;;;4984326;28;20487;-74
2021/01/08 04:08:37;;;;;;;3.15;1.35;;;;;;;;;;4993487;28;20030;-75
2021/01/08 04:11:03;;;;;;;1.50;1.02;;;;;;;;;;4989285;28;20042;-74
2021/01/08 04:13:29;;;;;;;;;;;;;;;;;;4993977;28;20053;-74
2021/01/08 04:15:55;;;;;;;2.10;0.88;;;;;;;;;;4977620;28;20347;-74
2021/01/08 04:18:21;;;;;;;0.70;0.70;;;;;;;;;;4992677;28;20042;-75
2021/01/08 04:20:48;;;;;;;2.38;1.08;;;;;;;;;;4994944;28;20442;-75
2021/01/08 04:23:14;;;;;;;1.60;0.85;;;;;;;;;;4991413;28;20096;-74
2021/01/08 04:25:41;;;;;;;3.20;1.02;;;;;;;;;;4982888;28;20097;-75
2021/01/08 04:28:07;;;;;;;2.45;1.17;;;;;;;;;;4983191;28;20047;-73
2021/01/08 04:30:33;;;;;;;1.67;0.90;;;;;;;;;;4992374;28;20065;-75
2021/01/08 04:32:59;;;;;;;1.25;0.88;;;;;;;;;;4992233;28;20438;-75
2021/01/08 04:35:25;;;;;;;2.25;1.20;;;;;;;;;;4991675;28;20128;-75
2021/01/08 04:37:51;;;;;;;2.47;1.23;;;;;;;;;;4994525;28;20038;-74
2021/01/08 04:40:19;;;;;;;4.75;1.67;;;;;;;;;;4993121;28;20046;-75
2021/01/08 04:42:46;;;;;;;3.15;1.00;;;;;;;;;;4991864;28;20037;-74
2021/01/08 04:45:12;;;;;;;2.00;0.98;;;;;;;;;;4992939;28;20453;-75
2021/01/08 04:47:39;;;;;;;2.63;0.95;;;;;;;;;;4987250;28;20041;-74
2021/01/08 04:50:06;;;;;;;3.88;0.90;;;;;;;;;;4994107;28;20038;-74
2021/01/08 04:52:35;;;;;;;2.70;1.00;;;;;;;;;;4994137;28;20204;-75
2021/01/08 04:55:02;;;;;;;2.50;1.13;;;;;;;;;;4992673;28;20088;-75
2021/01/08 04:57:29;;;;;;;3.08;0.73;;;;;;;;;;4993971;28;20042;-74
2021/01/08 04:59:57;;;;;;;2.42;1.30;;;;;;;;;;4989755;28;20038;-74
2021/01/08 05:02:23;;;;;;;1.63;0.80;;;;;;;;;;4980544;28;20065;-74
2021/01/08 05:04:50;;;;;;;2.95;0.95;;;;;;;;;;4989220;28;20409;-74
2021/01/08 05:07:17;;;;;;;2.08;0.80;;;;;;;;;;4992691;28;20042;-74
2021/01/08 05:09:43;;;;;;;1.30;0.70;;;;;;;;;;4993956;28;20046;-75
2021/01/08 05:12:09;;;;;;;3.10;0.80;;;;;;;;;;4982051;28;20042;-74
2021/01/08 05:14:37;;;;;;;2.15;1.05;;;;;;;;;;4988994;28;20042;-75
2021/01/08 05:17:04;;;;;;;2.53;1.00;;;;;;;;;;4992238;28;20034;-74
2021/01/08 05:19:30;;;;;;;1.73;0.70;;;;;;;;;;4993951;28;20046;-74
2021/01/08 05:21:56;;;;;;;1.42;1.02;;;;;;;;;;4992241;28;20042;-75
2021/01/08 05:24:23;;;;;;;0.90;0.60;;;;;;;;;;4992271;28;20054;-74
2021/01/08 05:26:49;;;;;;;3.28;1.27;;;;;;;;;;4978166;28;20038;-74
2021/01/08 05:29:15;;;;;;;2.55;0.60;;;;;;;;;;4982466;28;20046;-75
2021/01/08 05:31:42;;;;;;;2.03;0.70;;;;;;;;;;4978751;28;20046;-74
2021/01/08 05:34:10;;;;;;;1.58;0.88;;;;;;;;;;4981930;28;20038;-74
2021/01/08 05:36:37;;;;;;;2.92;0.70;;;;;;;;;;4980763;28;20038;-74
2021/01/08 05:39:03;;;;;;;;;;;;;;;;;;4993867;28;20061;-74
2021/01/08 05:41:31;;;;;;;2.38;0.77;;;;;;;;;;4993854;28;19906;-75
2021/01/08 05:43:59;;;;;;;3.10;0.60;;;;;;;;;;4988657;28;20035;-74
2021/01/08 05:46:27;;;;;;;1.85;0.68;;;;;;;;;;4982323;28;20042;-75
2021/01/08 05:48:54;;;;;;;3.40;0.68;;;;;;;;;;4978432;28;20045;-75
2021/01/08 05:51:22;;;;;;;1.63;0.65;;;;;;;;;;4983333;28;20042;-74
2021/01/08 05:53:48;;;;;;;1.05;0.63;;;;;;;;;;4982701;28;20078;-74
2021/01/08 05:56:16;;;;;;;1.92;0.70;;;;;;;;;;4992156;28;20545;-74
2021/01/08 05:58:42;;;;;;;1.05;0.70;;;;;;;;;;4993558;28;20082;-74
2021/01/08 06:01:09;;;;;;;2.65;1.38;;;;;;;;;;4987348;28;20046;-74
2021/01/08 06:03:35;;;;;;;1.42;0.68;;;;;;;;;;4987402;28;20063;-74
2021/01/08 06:06:02;;;;;;;2.30;0.70;;;;;;;;;;4984233;28;20039;-74
2021/01/08 06:08:30;;;;;;;2.70;0.80;;;;;;;;;;4993782;28;20474;-74
2021/01/08 06:10:57;;;;;;;2.40;0.93;;;;;;;;;;4990613;28;20038;-75
2021/01/08 06:13:26;;;;;;;1.55;1.00;;;-0.40;99.90;;;;;;4974746;28;20038;-74
2021/01/08 06:15:55;;;;;;;1.48;0.77;;;-1.30;72.70;;;;;;4981551;28;20062;-74
2021/01/08 06:18:23;;;;;;;1.33;0.85;;;-1.20;72.10;;;;;;4986233;28;20034;-74
2021/01/08 06:20:51;;;;;;;1.63;0.77;;;-1.30;72.10;;;;;;4990676;28;20050;-74
2021/01/08 06:23:34;;;;;;;1.35;0.75;;;-1.20;71.10;;;;;;4993402;28;20429;-75
2021/01/08 06:26:00;;;;;;;1.33;0.90;;;-1.10;71.10;;;;;;4995549;28;20041;-74
2021/01/08 06:28:34;;;;;;;0.98;0.70;;;-1.20;72.10;;;;;;4987315;28;20161;-75
2021/01/08 06:31:06;;;;;;;1.58;0.70;;;-1.20;71.70;;;;;;4991647;28;20129;-74
2021/01/08 06:33:36;;;;;;;2.88;1.00;;;-1.20;70.80;;;;;;4993367;28;20122;-74
2021/01/08 06:36:15;;;;;;;2.50;0.80;;;-1.20;70.80;;;;;;4996893;28;20494;-75
2021/01/08 06:38:46;;;;;;;1.63;0.77;;;-1.10;70.20;;;;;;4986371;28;20066;-74
2021/01/08 06:41:14;;;;;;;4.43;1.45;;;-1.10;70.30;;;;;;4986993;28;20045;-75
2021/01/08 06:43:44;;;;;;;3.70;0.70;;;-1.10;70.40;;;;;;4994875;28;20057;-74
2021/01/08 06:46:25;;;;;;;1.55;0.80;;;-1.00;70.00;;;;;;4995467;28;20069;-74
2021/01/08 06:48:53;;;;;;;2.38;1.00;;;-1.10;70.30;;;;;;4992219;28;20124;-75
2021/01/08 06:51:26;;;;;;;1.77;0.80;;;-1.20;70.70;;;;;;4988400;28;20042;-75
2021/01/08 06:53:55;;;;;;;2.35;0.70;;;-1.10;70.60;;;;;;4993594;28;20061;-75
2021/01/08 06:56:31;;;;;;;1.63;0.70;;;-1.10;70.50;;;;;;4996271;28;20113;-74
2021/01/08 06:58:57;;;;;;;1.60;0.70;;;-1.10;70.30;;;;;;4993442;28;20050;-74
2021/01/08 07:01:44;;;;;;;1.92;0.60;;;-1.10;69.90;;;;;;4990606;28;20072;-75
2021/01/08 07:04:11;;;;;;;2.20;0.80;;;-1.10;68.60;;;;;;4991646;28;20060;-74
2021/01/08 07:06:38;;;;;;;2.75;0.60;;;-1.00;68.40;;;;;;4996562;28;20447;-74
2021/01/08 07:09:06;;;;;;;1.13;0.50;;;-0.90;68.10;;;;;;4991897;28;20030;-74
2021/01/08 07:11:33;;;;;;;1.90;0.80;;;-0.90;68.30;;;;;;4990774;28;20118;-75
2021/01/08 07:14:11;;;;;;;1.73;1.08;;;-1.00;68.20;;;;;;4975608;28;20506;-75
2021/01/08 07:16:42;;;;;;;1.55;0.68;;;-1.00;67.60;;;;;;4978658;28;20050;-75
2021/01/08 07:19:10;;;;;;;4.85;1.10;;;-0.90;68.20;;;;;;4984750;28;20054;-75
2021/01/08 07:21:44;;;;;;;2.65;0.80;;;-0.90;69.40;;;;;;4975313;28;20042;-75
2021/01/08 07:24:13;;;;;;;5.97;1.00;;;-0.90;69.30;;;;;;4986046;28;20081;-74
2021/01/08 07:26:39;;;;;;;;;;;-1.00;69.20;;;;;;4993865;28;20053;-75
2021/01/08 07:29:07;;;;;;;3.25;0.85;;;-1.10;69.70;;;;;;4983271;28;19922;-74
2021/01/08 07:31:35;;;;;;;2.15;1.13;;;-1.00;68.30;;;;;;4980229;28;20102;-74
2021/01/08 07:34:02;;;;;;;1.88;0.93;;;-1.00;68.30;;;;;;4976710;28;20147;-75
2021/01/08 07:36:29;;;;;;;1.55;0.70;;;-0.90;67.60;;;;;;4988994;28;20042;-75
2021/01/08 07:38:55;;;;;;;2.25;0.90;;;-0.80;67.70;;;;;;4993882;28;20121;-74
2021/01/08 07:41:33;;;;;;;3.08;0.80;;;-0.80;67.30;;;;;;4995674;28;20375;-74
2021/01/08 07:43:59;;;;;;;1.45;0.77;;;-0.80;66.80;;;;;;4989466;28;20093;-74
2021/01/08 07:46:30;;;;;;;2.13;0.80;;;-0.90;67.60;;;;;;4985250;28;20430;-74
2021/01/08 07:48:58;;;;;;;3.15;0.80;;;-0.90;67.50;;;;;;4995114;28;20035;-75
2021/01/08 07:51:43;;;;;;;1.38;0.80;;;;;;;;;;4994261;28;20042;-74
2021/01/08 07:54:10;;;;;;;;;;;;;;;;;;4981175;28;20050;-74
2021/01/08 07:56:57;;;;;;;2.15;0.52;;;;;;;;;;4983191;28;19905;-74
2021/01/08 07:59:29;;;;;;;1.73;0.90;;;;;;;;;;4981029;28;20125;-75
2021/01/08 08:01:55;;;;;;;2.08;0.90;;;;;;;;;;4987859;28;20065;-75
2021/01/08 08:04:22;;;;;;;2.05;0.95;;;;;;;;;;4979731;28;20109;-75
2021/01/08 08:06:50;;;;;;;3.00;0.90;;;;;;;;;;4992134;28;20054;-74
2021/01/08 08:09:17;;;;;;;1.77;0.70;;;;;;;;;;4983537;28;20035;-75
2021/01/08 08:11:43;;;;;;;2.03;0.90;;;;;;;;;;4986685;28;20165;-75
2021/01/08 08:14:16;;;;;;;1.48;0.70;;;;;;;;;;4986487;28;20478;-75
2021/01/08 08:16:44;;;;;;;1.33;0.55;;;0.60;63.10;;;;;;4990901;28;20073;-75
2021/01/08 08:19:11;;;;;;;4.13;0.98;;;0.50;93.70;;;;;;4985656;28;20045;-75
2021/01/08 08:21:37;;;;;;;;;;;0.50;94.30;;;;;;4995108;28;20073;-75
2021/01/08 08:24:05;;;;;;;5.05;1.08;;;0.60;94.50;;;;;;4993661;28;20381;-75
2021/01/08 08:26:33;;;;;;;2.17;1.00;;;0.60;94.50;;;;;;4980917;28;20395;-75
2021/01/08 08:29:01;;;;;;;2.67;1.00;;;0.70;93.90;;;;;;4993600;28;20092;-75
2021/01/08 08:31:28;;;;;;;1.65;0.85;;;0.60;94.70;;;;;;4994652;28;20069;-76
2021/01/08 08:33:55;;;;;;;;;;;0.70;94.60;;;;;;4979491;28;20033;-75
2021/01/08 08:36:21;;;;;;;;;;;0.60;94.20;;;;;;4993794;28;19976;-76
2021/01/08 08:39:00;;;;;;;;;;;0.80;93.80;;;;;;4992424;28;20296;-75
2021/01/08 08:41:27;;;;;;;1.58;0.80;;;0.90;93.10;;;;;;4984077;28;19918;-76
2021/01/08 08:44:06;;;;;;;;;;;1.00;93.40;;;;;;4980037;28;20056;-75
2021/01/08 08:46:43;;;;;;;1.73;0.60;;;1.10;93.30;;;;;;4991725;28;19929;-75
2021/01/08 08:49:11;;;;;;;1.75;0.80;;;1.30;93.00;;;;;;4979616;28;20398;-75
2021/01/08 08:51:40;;;;;;;2.80;1.20;;;1.30;92.60;;;;;;4983679;28;20481;-75
2021/01/08 08:54:06;;;;;;;2.60;0.77;;;1.30;92.60;;;;;;4990753;28;20031;-75
2021/01/08 08:56:32;;;;;;;2.33;1.05;;;1.30;92.30;;;;;;4991333;28;20123;-75
2021/01/08 08:58:58;;;;;;;;;;;1.30;93.20;;;;;;4989473;28;20030;-75
2021/01/08 09:01:36;;;;;;;;;;;1.40;93.10;;;;;;4992757;28;19921;-75
2021/01/08 09:04:06;;;;;;;2.00;0.85;;;;;;;;;;4992361;28;19929;-75
2021/01/08 09:06:35;;;;;;;2.85;0.82;;;;;;;;;;4989229;28;20459;-75
2021/01/08 09:09:01;;;;;;;2.35;1.30;;;;;;;;;;4993026;28;20417;-75
2021/01/08 09:11:34;;;;;;;1.83;1.23;;;;;;;;;;4982475;28;20048;-75
2021/01/08 09:14:04;;;;;;;1.55;0.88;;;1.40;58.20;;;;;;4993156;28;20046;-75
2021/01/08 09:16:40;;;;;;;2.60;1.40;;;1.70;56.30;;;;;;4990392;28;20042;-75
2021/01/08 09:19:08;;;;;;;1.67;1.10;;;1.70;57.00;;;;;;4984681;28;20041;-75
2021/01/08 09:21:40;;;;;;;1.40;1.00;;;1.80;56.60;;;;;;4992838;28;20391;-75
2021/01/08 09:24:10;;;;;;;2.35;1.23;;;;;;;;;;4984148;28;20388;-76
2021/01/08 09:26:41;;;;;;;2.35;1.20;;;;;;;;;;4987059;28;20957;-75
2021/01/08 09:29:07;;;;;;;3.42;1.30;;;;;;;;;;4973570;28;20443;-75
2021/01/08 09:31:40;;;;;;;2.50;1.10;;;1.90;55.60;;;;;;4987276;28;20399;-74
2021/01/08 09:34:06;;;;;;;3.47;1.40;;;2.00;57.60;;;;;;4992817;28;20762;-75
2021/01/08 09:36:35;;;;;;;3.63;1.40;;;2.10;57.00;;;;;;4992842;28;20886;-75
2021/01/08 09:39:04;;;;;;;2.00;1.17;;;2.30;55.70;;;;;;4992753;28;20469;-74
2021/01/08 09:41:31;;;;;;;2.90;1.00;;;2.50;79.20;;;;;;4992761;28;20390;-75
2021/01/08 09:43:59;;;;;;;1.93;0.90;;;2.50;78.10;;;;;;4991334;28;20413;-75
2021/01/08 09:46:25;;;;;;;2.47;0.98;;;2.70;53.40;;;;;;4991546;28;20413;-75
2021/01/08 09:48:51;;;;;;;1.80;1.00;;;;;;;;;;4991361;28;20422;-75
2021/01/08 09:51:17;;;;;;;2.53;1.40;;;2.70;53.50;;;;;;4993403;28;20398;-75
2021/01/08 09:53:53;;;;;;;2.03;1.30;;;2.90;52.80;;;;;;4982713;28;20431;-74
2021/01/08 09:56:19;;;;;;;4.18;1.35;;;2.80;52.80;;;;;;4995189;28;20413;-75
2021/01/08 09:58:45;;;;;;;2.70;1.10;;;2.90;52.70;;;;;;4996113;28;20410;-75
2021/01/08 10:01:15;;;;;;;2.15;0.85;;;2.90;52.90;;;;;;4989187;28;20412;-75
2021/01/08 10:03:49;;;;;;;2.25;1.00;;;2.90;51.70;;;;;;4988124;28;20418;-75
2021/01/08 10:06:15;;;;;;;2.42;1.10;;;2.90;51.90;;;;;;4992851;28;21162;-75
2021/01/08 10:08:41;;;;;;;2.80;0.90;;;3.00;52.00;;;;;;4991974;28;20399;-75
2021/01/08 10:11:08;;;;;;;3.15;0.82;;;3.00;51.30;;;;;;4992101;28;20475;-75
2021/01/08 10:13:37;;;;;;;2.03;0.70;;;3.00;50.60;;;;;;4995058;28;20549;-75
2021/01/08 10:16:07;;;;;;;1.30;0.80;;;3.10;51.10;;;;;;4983618;28;20407;-75
2021/01/08 10:18:36;;;;;;;1.40;0.90;;;;;;;;;;4995293;28;20449;-75
2021/01/08 10:21:04;;;;;;;1.80;0.90;;;;;;;;;;4983400;28;20470;-75
2021/01/08 10:23:30;;;;;;;2.97;1.10;;;;;;;;;;4994047;28;20459;-75
2021/01/08 10:25:56;;;;;;;;;;;;;;;;;;4986587;28;20039;-75
2021/01/08 10:28:23;;;;;;;;;;;3.20;50.50;;;;;;4991470;28;19984;-75
2021/01/08 10:30:50;;;;;;;;;;;2.80;74.20;;;;;;4988201;28;19922;-75
2021/01/08 10:33:16;;;;;;;;;;;3.60;74.20;;;;;;4990222;28;20297;-74
2021/01/08 10:35:45;;;;;;;;;;;3.60;73.60;;;;;;4984291;28;19922;-75
2021/01/08 10:38:11;;;;;;;;;;;3.70;72.90;;;;;;4992857;28;19929;-75
2021/01/08 10:40:37;;;;;;;;;;;3.70;73.60;;;;;;4977891;28;19917;-75
2021/01/08 10:43:03;;;;;;;;;;;3.70;71.40;;;;;;4987349;28;19945;-75
2021/01/08 10:45:29;;;;;;;;;;;3.70;71.80;;;;;;4992597;28;19918;-75
2021/01/08 10:47:55;;;;;;;;;;;3.80;73.30;;;;;;4976601;28;19949;-75
2021/01/08 10:50:21;;;;;;;;;;;;;;;;;;4991375;28;19918;-75
2021/01/08 10:52:46;;;;;;;;;;;;;;;;;;4977698;28;19906;-75
2021/01/08 10:55:12;;;;;;;;;;;;;;;;;;4990416;28;20424;-75
2021/01/08 10:57:38;;;;;;;;;;;4.00;58.10;;;;;;4992203;28;19913;-75
2021/01/08 11:00:05;;;;;;;;;;;4.00;65.00;;;;;;4993819;28;20293;-75
2021/01/08 11:02:32;;;;;;;;;;;3.90;65.70;;;;;;4996245;28;19918;-74
2021/01/08 11:04:58;;;;;;;;;;;4.20;60.90;;;;;;4993503;28;19968;-75
2021/01/08 11:07:23;;;;;;;;;;;4.20;49.10;;;;;;4981689;28;20376;-75
2021/01/08 11:09:49;;;;;;;;;;;4.30;52.30;;;;;;4980082;28;19918;-75
2021/01/08 11:12:15;;;;;;;;;;;4.30;49.30;;;;;;4995849;28;20335;-75
2021/01/08 11:14:40;;;;;;;;;;;4.30;48.70;;;;;;4995240;28;19918;-75
2021/01/08 11:17:06;;;;;;;;;;;;;;;;;;4995443;28;20374;-75
2021/01/08 11:19:32;;;;;;;;;;;;;;;;;;4996616;28;20525;-74
2021/01/08 11:21:58;;;;;;;;;;;;;;;;;;4994995;28;19956;-75
2021/01/08 11:24:27;;;;;;;;;;;;;;;;;;4995226;28;19913;-74
2021/01/08 11:26:57;;;;;;;;;;;4.80;92.40;;;;;;4994864;28;20289;-75
2021/01/08 11:29:24;;;;;;;;;;;1.90;46.50;;;;;;4996294;28;19926;-75
2021/01/08 11:31:50;;;;;;;;;;;4.90;48.70;;;;;;4994674;28;20329;-75
2021/01/08 11:34:15;;;;;;;;;;;5.20;70.40;;;;;;4995097;28;19917;-75
2021/01/08 11:36:41;;;;;;;;;;;5.30;63.30;;;;;;4980934;28;19918;-75
2021/01/08 11:39:07;;;;;;;;;;;5.10;48.40;;;;;;4996177;28;19922;-75
2021/01/08 11:41:33;;;;;;;;;;;5.30;46.60;;;;;;4991789;28;20521;-75
2021/01/08 11:43:59;;;;;;;;;;;5.30;46.00;;;;;;4994371;28;19929;-75
2021/01/08 11:46:25;;;;;;;;;;;5.30;46.70;;;;;;4993465;28;19929;-75
2021/01/08 11:48:54;;;;;;;;;;;5.40;47.50;;;;;;4993263;28;19929;-74
2021/01/08 11:51:20;;;;;;;;;;;5.40;46.70;;;;;;4986228;28;19917;-75
2021/01/08 11:53:46;;;;;;;;;;;5.50;46.60;;;;;;4978299;28;19918;-75
2021/01/08 11:56:12;;;;;;;;;;;5.60;46.10;;;;;;4981805;28;20374;-75
2021/01/08 11:58:38;;;;;;;;;;;5.70;45.80;;;;;;4984136;28;20298;-75
2021/01/08 12:01:05;;;;;;;;;;;5.80;45.70;;;;;;4982950;28;19921;-75
2021/01/08 12:03:31;;;;;;;;;;;5.80;45.20;;;;;;4977209;28;19922;-75
2021/01/08 12:05:56;;;;;;;;;;;5.80;47.20;;;;;;4976793;28;20467;-74
2021/01/08 12:08:22;;;;;;;;;;;5.90;45.90;;;;;;4989036;28;20443;-75
2021/01/08 12:10:48;;;;;;;;;;;6.10;44.90;;;;;;4987222;28;19918;-74
2021/01/08 12:13:14;;;;;;;;;;;6.10;45.20;;;;;;4988525;28;19926;-75
2021/01/08 12:15:39;;;;;;;;;;;6.20;45.80;;;;;;4976229;28;20021;-75
2021/01/08 12:18:06;;;;;;;;;;;6.20;46.50;;;;;;4978548;28;19984;-75
2021/01/08 12:20:31;;;;;;;;;;;6.30;45.10;;;;;;4974011;28;19929;-75
2021/01/08 12:22:57;;;;;;;;;;;6.40;44.10;;;;;;4979647;28;19918;-75
2021/01/08 12:25:23;;;;;;;;;;;6.50;44.60;;;;;;4980080;28;19968;-75
2021/01/08 12:27:48;;;;;;;;;;;6.60;44.50;;;;;;4979222;28;19925;-75
2021/01/08 12:30:15;;;;;;;;;;;6.70;44.70;;;;;;4979343;28;19965;-75
2021/01/08 12:32:40;;;;;;;;;;;6.80;45.90;;;;;;4981269;28;19917;-74
2021/01/08 12:35:08;;;;;;;;;;;6.90;44.70;;;;;;4980954;28;19925;-75
2021/01/08 12:37:34;;;;;;;;;;;7.00;44.50;;;;;;4985826;28;19922;-75
2021/01/08 12:39:59;;;;;;;;;;;7.10;45.30;;;;;;4976558;28;19922;-75
2021/01/08 12:42:25;;;;;;;;;;;7.30;72.30;;;;;;4978010;28;20369;-74
2021/01/08 12:44:51;;;;;;;;;;;7.30;44.40;;;;;;4977882;28;19918;-75
2021/01/08 12:47:16;;;;;;;;;;;7.40;43.80;;;;;;4981954;28;19958;-75
2021/01/08 12:49:42;;;;;;;;;;;7.40;44.50;;;;;;4976879;28;19922;-74
2021/01/08 12:52:09;;;;;;;;;;;;;;;;;;4983990;28;20297;-75
2021/01/08 12:54:35;;;;;;;;;;;;;;;;;;4980857;28;19956;-74
2021/01/08 12:57:01;;;;;;;;;;;;;;;;;;4988189;28;19910;-75
2021/01/08 12:59:27;;;;;;;;;;;;;;;;;;4982510;28;19922;-74
2021/01/08 13:01:53;;;;;;;;;;;;;;;;;;4988349;28;19941;-75
2021/01/08 13:04:19;;;;;;;;;;;7.90;43.50;;;;;;4984718;28;20032;-75
2021/01/08 13:06:45;;;;;;;;;;;7.80;43.20;;;;;;4980136;28;19952;-74
2021/01/08 13:09:11;;;;;;;;;;;;;;;;;;4990399;28;19973;-74
2021/01/08 13:11:36;;;;;;;;;;;;;;;;;;4984453;28;20309;-75
2021/01/08 13:14:02;;;;;;;;;;;8.00;43.10;;;;;;4986976;28;19909;-75
2021/01/08 13:16:28;;;;;;;;;;;;;;;;;;4987376;28;19963;-74
2021/01/08 13:18:54;;;;;;;;;;;;;;;;;;4987853;28;19973;-74
2021/01/08 13:21:20;;;;;;;;;;;;;;;;;;4986863;28;20350;-75
2021/01/08 13:23:46;;;;;;;;;;;;;;;;;;4989182;28;20305;-74
2021/01/08 13:26:12;;;;;;;;;;;;;;;;;;4980727;28;19906;-75
2021/01/08 13:28:38;;;;;;;;;;;;;;;;;;4979544;28;19906;-75
2021/01/08 13:31:04;;;;;;;;;;;;;;;;;;4976818;28;20342;-75
2021/01/08 13:33:31;;;;;;;;;;;8.30;41.50;;;;;;4979339;28;20269;-74
2021/01/08 13:35:56;;;;;;;;;;;8.40;42.70;;;;;;4990819;28;19922;-74
2021/01/08 13:38:22;;;;;;;;;;;8.50;56.60;;;;;;4986442;28;20432;-74
2021/01/08 13:40:48;;;;;;;;;;;8.40;65.60;;;;;;4976664;28;19918;-74
2021/01/08 13:43:13;;;;;;;;;;;8.60;68.60;;;;;;4993036;28;19924;-75
2021/01/08 13:45:39;;;;;;;;;;;;;;;;;;4992954;28;20369;-75
2021/01/08 13:48:05;;;;;;;;;;;;;;;;;;4993859;28;20361;-74
2021/01/08 13:50:32;;;;;;;;;;;8.50;71.50;;;;;;4992082;28;20349;-74
2021/01/08 13:52:57;;;;;;;;;;;8.60;73.30;;;;;;4994107;28;19928;-74
2021/01/08 13:55:23;;;;;;;;;;;8.60;73.20;;;;;;4993348;28;20012;-74
2021/01/08 13:57:49;;;;;;;;;;;8.50;73.50;;;;;;4989428;28;19918;-74
2021/01/08 14:00:15;;;;;;;;;;;8.40;73.40;;;;;;4980493;28;19969;-74
2021/01/08 14:02:40;;;;;;;;;;;8.40;73.10;;;;;;4989634;28;19917;-74
2021/01/08 14:05:07;;;;;;;;;;;8.30;74.10;;;;;;4992403;28;20448;-75
2021/01/08 14:07:34;;;;;;;;;;;8.30;75.30;;;;;;4993933;28;20380;-74
2021/01/08 14:10:00;;;;;;;;;;;8.10;75.90;;;;;;4992466;28;19922;-75
2021/01/08 14:12:25;;;;;;;;;;;8.20;74.90;;;;;;4992330;28;20286;-75
2021/01/08 14:14:51;;;;;;;;;;;8.30;73.80;;;;;;4980033;28;19918;-74
2021/01/08 14:17:17;;;;;;;;;;;8.20;74.10;;;;;;4992666;28;19921;-74
2021/01/08 14:19:43;;;;;;;;;;;8.10;71.40;;;;;;4992233;28;19929;-74
2021/01/08 14:22:08;;;;;;;;;;;7.90;71.70;;;;;;4993850;28;19933;-75
2021/01/08 14:24:35;;;;;;;;;;;7.70;48.20;;;;;;4992505;28;19917;-74
2021/01/08 14:27:01;;;;;;;;;;;7.50;45.30;;;;;;4992393;28;20037;-74